sensor_id;sensor_type;location;lat;lon;timestamp;P1;durP1;ratioP1;P2;durP2;ratioP2
69172;SDS011;56280;49.662;8.408;2022-08-19T00:02:07;25.57;;;19.70;;
69172;SDS011;56280;49.662;8.408;2022-08-19T00:04:33;26.80;;;20.43;;
69172;SDS011;56280;49.662;8.408;2022-08-19T00:07:01;27.70;;;20.03;;
69172;SDS011;56280;49.662;8.408;2022-08-19T00:09:28;24.83;;;20.23;;
69172;SDS011;56280;49.662;8.408;2022-08-19T00:11:55;27.00;;;20.33;;
69172;SDS011;56280;49.662;8.408;2022-08-19T00:14:21;27.38;;;20.25;;
69172;SDS011;56280;49.662;8.408;2022-08-19T00:16:47;27.02;;;19.92;;
69172;SDS011;56280;49.662;8.408;2022-08-19T00:19:14;26.15;;;21.08;;
69172;SDS011;56280;49.662;8.408;2022-08-19T00:21:41;26.88;;;20.40;;
69172;SDS011;56280;49.662;8.408;2022-08-19T00:24:07;30.40;;;21.33;;
69172;SDS011;56280;49.662;8.408;2022-08-19T00:26:33;26.25;;;21.00;;
69172;SDS011;56280;49.662;8.408;2022-08-19T00:28:59;24.67;;;19.55;;
69172;SDS011;56280;49.662;8.408;2022-08-19T00:31:25;24.15;;;19.95;;
69172;SDS011;56280;49.662;8.408;2022-08-19T00:33:52;27.33;;;21.38;;
69172;SDS011;56280;49.662;8.408;2022-08-19T00:36:18;28.37;;;19.87;;
69172;SDS011;56280;49.662;8.408;2022-08-19T00:38:43;25.30;;;19.60;;
69172;SDS011;56280;49.662;8.408;2022-08-19T00:41:10;25.20;;;19.55;;
69172;SDS011;56280;49.662;8.408;2022-08-19T00:43:39;23.73;;;19.23;;
69172;SDS011;56280;49.662;8.408;2022-08-19T00:46:06;26.13;;;20.48;;
69172;SDS011;56280;49.662;8.408;2022-08-19T00:48:31;24.63;;;19.50;;
69172;SDS011;56280;49.662;8.408;2022-08-19T00:50:58;27.75;;;20.90;;
69172;SDS011;56280;49.662;8.408;2022-08-19T00:53:26;26.93;;;20.40;;
69172;SDS011;56280;49.662;8.408;2022-08-19T00:55:54;25.33;;;19.23;;
69172;SDS011;56280;49.662;8.408;2022-08-19T00:58:23;26.85;;;20.13;;
69172;SDS011;56280;49.662;8.408;2022-08-19T01:00:52;24.73;;;19.08;;
69172;SDS011;56280;49.662;8.408;2022-08-19T01:03:18;24.30;;;20.10;;
69172;SDS011;56280;49.662;8.408;2022-08-19T01:05:46;24.67;;;20.40;;
69172;SDS011;56280;49.662;8.408;2022-08-19T01:08:13;25.67;;;20.75;;
69172;SDS011;56280;49.662;8.408;2022-08-19T01:10:41;27.27;;;19.93;;
69172;SDS011;56280;49.662;8.408;2022-08-19T01:13:11;26.88;;;21.15;;
69172;SDS011;56280;49.662;8.408;2022-08-19T01:15:42;26.20;;;20.88;;
69172;SDS011;56280;49.662;8.408;2022-08-19T01:18:12;26.83;;;20.92;;
69172;SDS011;56280;49.662;8.408;2022-08-19T01:20:39;24.77;;;19.92;;
69172;SDS011;56280;49.662;8.408;2022-08-19T01:23:05;24.57;;;20.37;;
69172;SDS011;56280;49.662;8.408;2022-08-19T01:25:44;25.17;;;19.70;;
69172;SDS011;56280;49.662;8.408;2022-08-19T01:28:24;26.77;;;19.92;;
69172;SDS011;56280;49.662;8.408;2022-08-19T01:30:52;25.33;;;19.25;;
69172;SDS011;56280;49.662;8.408;2022-08-19T01:33:19;26.50;;;21.17;;
69172;SDS011;56280;49.662;8.408;2022-08-19T01:35:45;24.98;;;19.83;;
69172;SDS011;56280;49.662;8.408;2022-08-19T01:38:19;27.45;;;21.85;;
69172;SDS011;56280;49.662;8.408;2022-08-19T01:40:47;27.10;;;21.58;;
69172;SDS011;56280;49.662;8.408;2022-08-19T01:43:12;26.03;;;21.67;;
69172;SDS011;56280;49.662;8.408;2022-08-19T01:45:38;26.17;;;21.17;;
69172;SDS011;56280;49.662;8.408;2022-08-19T01:48:05;26.98;;;21.90;;
69172;SDS011;56280;49.662;8.408;2022-08-19T01:50:31;28.40;;;23.30;;
69172;SDS011;56280;49.662;8.408;2022-08-19T01:52:58;30.38;;;23.98;;
69172;SDS011;56280;49.662;8.408;2022-08-19T01:55:25;31.10;;;23.20;;
69172;SDS011;56280;49.662;8.408;2022-08-19T01:57:52;27.70;;;20.77;;
69172;SDS011;56280;49.662;8.408;2022-08-19T02:00:21;30.30;;;22.63;;
69172;SDS011;56280;49.662;8.408;2022-08-19T02:02:49;25.40;;;20.45;;
69172;SDS011;56280;49.662;8.408;2022-08-19T02:05:14;30.57;;;22.50;;
69172;SDS011;56280;49.662;8.408;2022-08-19T02:07:41;27.75;;;22.05;;
69172;SDS011;56280;49.662;8.408;2022-08-19T02:10:09;29.80;;;22.30;;
69172;SDS011;56280;49.662;8.408;2022-08-19T02:12:37;29.25;;;21.98;;
69172;SDS011;56280;49.662;8.408;2022-08-19T02:15:03;28.97;;;22.17;;
69172;SDS011;56280;49.662;8.408;2022-08-19T02:17:29;27.58;;;22.00;;
69172;SDS011;56280;49.662;8.408;2022-08-19T02:19:55;29.30;;;22.48;;
69172;SDS011;56280;49.662;8.408;2022-08-19T02:22:21;28.33;;;21.90;;
69172;SDS011;56280;49.662;8.408;2022-08-19T02:24:47;26.37;;;21.70;;
69172;SDS011;56280;49.662;8.408;2022-08-19T02:27:12;27.60;;;22.00;;
69172;SDS011;56280;49.662;8.408;2022-08-19T02:29:38;28.07;;;21.50;;
69172;SDS011;56280;49.662;8.408;2022-08-19T02:32:04;30.73;;;22.65;;
69172;SDS011;56280;49.662;8.408;2022-08-19T02:34:29;31.60;;;24.07;;
69172;SDS011;56280;49.662;8.408;2022-08-19T02:36:54;27.87;;;21.37;;
69172;SDS011;56280;49.662;8.408;2022-08-19T02:39:20;28.63;;;23.30;;
69172;SDS011;56280;49.662;8.408;2022-08-19T02:41:45;27.57;;;21.37;;
69172;SDS011;56280;49.662;8.408;2022-08-19T02:44:10;28.77;;;21.67;;
69172;SDS011;56280;49.662;8.408;2022-08-19T02:46:35;28.23;;;21.60;;
69172;SDS011;56280;49.662;8.408;2022-08-19T02:49:03;29.13;;;21.90;;
69172;SDS011;56280;49.662;8.408;2022-08-19T02:51:32;26.27;;;20.08;;
69172;SDS011;56280;49.662;8.408;2022-08-19T02:54:04;31.02;;;21.40;;
69172;SDS011;56280;49.662;8.408;2022-08-19T02:56:30;27.83;;;21.42;;
69172;SDS011;56280;49.662;8.408;2022-08-19T02:58:57;28.73;;;21.50;;
69172;SDS011;56280;49.662;8.408;2022-08-19T03:01:27;26.63;;;20.63;;
69172;SDS011;56280;49.662;8.408;2022-08-19T03:03:54;28.58;;;21.27;;
69172;SDS011;56280;49.662;8.408;2022-08-19T03:06:20;25.92;;;21.48;;
69172;SDS011;56280;49.662;8.408;2022-08-19T03:08:47;27.45;;;20.77;;
69172;SDS011;56280;49.662;8.408;2022-08-19T03:11:15;25.25;;;19.75;;
69172;SDS011;56280;49.662;8.408;2022-08-19T03:13:43;24.80;;;20.90;;
69172;SDS011;56280;49.662;8.408;2022-08-19T03:16:09;25.73;;;20.30;;
69172;SDS011;56280;49.662;8.408;2022-08-19T03:18:36;25.77;;;20.30;;
69172;SDS011;56280;49.662;8.408;2022-08-19T03:21:01;26.33;;;20.13;;
69172;SDS011;56280;49.662;8.408;2022-08-19T03:23:26;25.77;;;20.23;;
69172;SDS011;56280;49.662;8.408;2022-08-19T03:25:52;24.20;;;20.83;;
69172;SDS011;56280;49.662;8.408;2022-08-19T03:28:19;24.85;;;20.80;;
69172;SDS011;56280;49.662;8.408;2022-08-19T03:30:59;27.05;;;21.30;;
69172;SDS011;56280;49.662;8.408;2022-08-19T03:33:27;26.42;;;20.52;;
69172;SDS011;56280;49.662;8.408;2022-08-19T03:36:11;24.70;;;20.08;;
69172;SDS011;56280;49.662;8.408;2022-08-19T03:38:42;26.40;;;19.83;;
69172;SDS011;56280;49.662;8.408;2022-08-19T03:41:11;25.25;;;20.85;;
69172;SDS011;56280;49.662;8.408;2022-08-19T03:43:41;24.10;;;19.33;;
69172;SDS011;56280;49.662;8.408;2022-08-19T03:46:08;24.33;;;19.90;;
69172;SDS011;56280;49.662;8.408;2022-08-19T03:48:37;25.55;;;20.25;;
69172;SDS011;56280;49.662;8.408;2022-08-19T03:51:04;25.30;;;19.73;;
69172;SDS011;56280;49.662;8.408;2022-08-19T03:53:30;26.50;;;19.67;;
69172;SDS011;56280;49.662;8.408;2022-08-19T03:55:57;23.17;;;18.75;;
69172;SDS011;56280;49.662;8.408;2022-08-19T03:58:24;24.98;;;19.33;;
69172;SDS011;56280;49.662;8.408;2022-08-19T04:00:50;25.07;;;20.23;;
69172;SDS011;56280;49.662;8.408;2022-08-19T04:03:16;25.48;;;19.40;;
69172;SDS011;56280;49.662;8.408;2022-08-19T04:05:43;23.38;;;19.52;;
69172;SDS011;56280;49.662;8.408;2022-08-19T04:08:09;23.98;;;20.05;;
69172;SDS011;56280;49.662;8.408;2022-08-19T04:10:38;22.70;;;19.33;;
69172;SDS011;56280;49.662;8.408;2022-08-19T04:13:04;23.17;;;19.20;;
69172;SDS011;56280;49.662;8.408;2022-08-19T04:15:31;24.52;;;19.73;;
69172;SDS011;56280;49.662;8.408;2022-08-19T04:18:00;24.75;;;19.83;;
69172;SDS011;56280;49.662;8.408;2022-08-19T04:20:26;25.33;;;20.55;;
69172;SDS011;56280;49.662;8.408;2022-08-19T04:22:51;26.80;;;19.50;;
69172;SDS011;56280;49.662;8.408;2022-08-19T04:25:16;24.17;;;19.73;;
69172;SDS011;56280;49.662;8.408;2022-08-19T04:27:42;24.60;;;19.43;;
69172;SDS011;56280;49.662;8.408;2022-08-19T04:30:11;24.02;;;19.55;;
69172;SDS011;56280;49.662;8.408;2022-08-19T04:32:37;24.27;;;18.98;;
69172;SDS011;56280;49.662;8.408;2022-08-19T04:35:03;23.13;;;20.03;;
69172;SDS011;56280;49.662;8.408;2022-08-19T04:37:28;22.40;;;19.30;;
69172;SDS011;56280;49.662;8.408;2022-08-19T04:39:58;24.30;;;19.42;;
69172;SDS011;56280;49.662;8.408;2022-08-19T04:42:42;21.90;;;18.85;;
69172;SDS011;56280;49.662;8.408;2022-08-19T04:45:12;23.07;;;18.97;;
69172;SDS011;56280;49.662;8.408;2022-08-19T04:47:40;21.30;;;18.33;;
69172;SDS011;56280;49.662;8.408;2022-08-19T04:50:07;23.00;;;19.08;;
69172;SDS011;56280;49.662;8.408;2022-08-19T04:52:34;23.27;;;18.05;;
69172;SDS011;56280;49.662;8.408;2022-08-19T04:54:59;23.03;;;18.80;;
69172;SDS011;56280;49.662;8.408;2022-08-19T04:57:24;21.67;;;18.43;;
69172;SDS011;56280;49.662;8.408;2022-08-19T04:59:54;23.85;;;17.98;;
69172;SDS011;56280;49.662;8.408;2022-08-19T05:02:20;22.67;;;18.33;;
69172;SDS011;56280;49.662;8.408;2022-08-19T05:04:49;22.35;;;18.42;;
69172;SDS011;56280;49.662;8.408;2022-08-19T05:07:15;21.50;;;17.52;;
69172;SDS011;56280;49.662;8.408;2022-08-19T05:09:40;23.37;;;19.23;;
69172;SDS011;56280;49.662;8.408;2022-08-19T05:12:05;22.03;;;17.80;;
69172;SDS011;56280;49.662;8.408;2022-08-19T05:14:31;21.00;;;17.87;;
69172;SDS011;56280;49.662;8.408;2022-08-19T05:16:56;22.27;;;19.07;;
69172;SDS011;56280;49.662;8.408;2022-08-19T05:19:21;22.95;;;18.55;;
69172;SDS011;56280;49.662;8.408;2022-08-19T05:22:05;25.03;;;18.73;;
69172;SDS011;56280;49.662;8.408;2022-08-19T05:24:49;23.85;;;18.02;;
69172;SDS011;56280;49.662;8.408;2022-08-19T05:27:14;22.83;;;18.10;;
69172;SDS011;56280;49.662;8.408;2022-08-19T05:29:40;20.98;;;17.35;;
69172;SDS011;56280;49.662;8.408;2022-08-19T05:32:05;24.25;;;18.92;;
69172;SDS011;56280;49.662;8.408;2022-08-19T05:34:35;21.87;;;17.90;;
69172;SDS011;56280;49.662;8.408;2022-08-19T05:37:02;21.67;;;18.20;;
69172;SDS011;56280;49.662;8.408;2022-08-19T05:39:35;22.17;;;18.13;;
69172;SDS011;56280;49.662;8.408;2022-08-19T05:42:03;21.75;;;18.27;;
69172;SDS011;56280;49.662;8.408;2022-08-19T05:44:33;22.35;;;18.98;;
69172;SDS011;56280;49.662;8.408;2022-08-19T05:47:02;20.70;;;18.07;;
69172;SDS011;56280;49.662;8.408;2022-08-19T05:49:30;22.10;;;19.00;;
69172;SDS011;56280;49.662;8.408;2022-08-19T05:51:57;21.52;;;18.05;;
69172;SDS011;56280;49.662;8.408;2022-08-19T05:54:24;20.83;;;17.65;;
69172;SDS011;56280;49.662;8.408;2022-08-19T05:56:50;23.63;;;18.15;;
69172;SDS011;56280;49.662;8.408;2022-08-19T05:59:17;22.03;;;17.37;;
69172;SDS011;56280;49.662;8.408;2022-08-19T06:01:46;19.48;;;15.88;;
69172;SDS011;56280;49.662;8.408;2022-08-19T06:04:15;20.65;;;17.90;;
69172;SDS011;56280;49.662;8.408;2022-08-19T06:06:43;21.75;;;18.08;;
69172;SDS011;56280;49.662;8.408;2022-08-19T06:09:09;19.77;;;16.60;;
69172;SDS011;56280;49.662;8.408;2022-08-19T06:14:04;20.15;;;16.40;;
69172;SDS011;56280;49.662;8.408;2022-08-19T06:16:33;18.05;;;16.13;;
69172;SDS011;56280;49.662;8.408;2022-08-19T06:19:00;21.77;;;16.08;;
69172;SDS011;56280;49.662;8.408;2022-08-19T06:21:28;20.57;;;16.10;;
69172;SDS011;56280;49.662;8.408;2022-08-19T06:23:54;19.73;;;16.23;;
69172;SDS011;56280;49.662;8.408;2022-08-19T06:26:20;18.27;;;15.75;;
69172;SDS011;56280;49.662;8.408;2022-08-19T06:28:48;21.73;;;16.25;;
69172;SDS011;56280;49.662;8.408;2022-08-19T06:31:14;18.80;;;15.67;;
69172;SDS011;56280;49.662;8.408;2022-08-19T06:33:41;20.80;;;15.82;;
69172;SDS011;56280;49.662;8.408;2022-08-19T06:36:08;17.10;;;14.95;;
69172;SDS011;56280;49.662;8.408;2022-08-19T06:38:41;18.55;;;15.32;;
69172;SDS011;56280;49.662;8.408;2022-08-19T06:41:07;19.73;;;15.13;;
69172;SDS011;56280;49.662;8.408;2022-08-19T06:43:33;17.65;;;14.00;;
69172;SDS011;56280;49.662;8.408;2022-08-19T06:45:58;15.87;;;13.90;;
69172;SDS011;56280;49.662;8.408;2022-08-19T06:48:24;15.85;;;13.68;;
69172;SDS011;56280;49.662;8.408;2022-08-19T06:50:49;16.27;;;13.87;;
69172;SDS011;56280;49.662;8.408;2022-08-19T06:53:16;14.82;;;13.02;;
69172;SDS011;56280;49.662;8.408;2022-08-19T06:55:44;15.90;;;13.25;;
69172;SDS011;56280;49.662;8.408;2022-08-19T06:58:10;19.23;;;14.17;;
69172;SDS011;56280;49.662;8.408;2022-08-19T07:00:35;15.55;;;13.02;;
69172;SDS011;56280;49.662;8.408;2022-08-19T07:03:01;16.17;;;13.83;;
69172;SDS011;56280;49.662;8.408;2022-08-19T07:05:27;17.65;;;13.63;;
69172;SDS011;56280;49.662;8.408;2022-08-19T07:07:52;17.83;;;13.40;;
69172;SDS011;56280;49.662;8.408;2022-08-19T07:10:18;14.90;;;11.93;;
69172;SDS011;56280;49.662;8.408;2022-08-19T07:12:44;15.90;;;11.50;;
69172;SDS011;56280;49.662;8.408;2022-08-19T07:15:09;17.23;;;11.33;;
69172;SDS011;56280;49.662;8.408;2022-08-19T07:17:36;13.85;;;11.90;;
69172;SDS011;56280;49.662;8.408;2022-08-19T07:20:04;16.17;;;12.48;;
69172;SDS011;56280;49.662;8.408;2022-08-19T07:22:32;15.73;;;11.52;;
69172;SDS011;56280;49.662;8.408;2022-08-19T07:25:02;14.75;;;11.43;;
69172;SDS011;56280;49.662;8.408;2022-08-19T07:27:28;14.00;;;11.57;;
69172;SDS011;56280;49.662;8.408;2022-08-19T07:29:53;17.03;;;11.23;;
69172;SDS011;56280;49.662;8.408;2022-08-19T07:32:20;16.98;;;11.73;;
69172;SDS011;56280;49.662;8.408;2022-08-19T07:34:45;15.00;;;11.77;;
69172;SDS011;56280;49.662;8.408;2022-08-19T07:37:11;18.10;;;12.87;;
69172;SDS011;56280;49.662;8.408;2022-08-19T07:39:37;18.30;;;13.05;;
69172;SDS011;56280;49.662;8.408;2022-08-19T07:42:05;15.60;;;11.55;;
69172;SDS011;56280;49.662;8.408;2022-08-19T07:44:32;15.20;;;12.00;;
69172;SDS011;56280;49.662;8.408;2022-08-19T07:46:59;16.23;;;12.00;;
69172;SDS011;56280;49.662;8.408;2022-08-19T07:49:25;18.05;;;11.80;;
69172;SDS011;56280;49.662;8.408;2022-08-19T07:51:58;14.05;;;11.38;;
69172;SDS011;56280;49.662;8.408;2022-08-19T07:54:26;14.93;;;10.80;;
69172;SDS011;56280;49.662;8.408;2022-08-19T07:56:53;15.18;;;11.25;;
69172;SDS011;56280;49.662;8.408;2022-08-19T07:59:19;15.43;;;11.67;;
69172;SDS011;56280;49.662;8.408;2022-08-19T08:01:45;17.30;;;11.68;;
69172;SDS011;56280;49.662;8.408;2022-08-19T08:04:11;13.70;;;11.80;;
69172;SDS011;56280;49.662;8.408;2022-08-19T08:06:56;13.10;;;11.70;;
69172;SDS011;56280;49.662;8.408;2022-08-19T08:09:41;16.20;;;11.30;;
69172;SDS011;56280;49.662;8.408;2022-08-19T08:12:11;15.80;;;11.27;;
69172;SDS011;56280;49.662;8.408;2022-08-19T08:14:43;16.55;;;11.77;;
69172;SDS011;56280;49.662;8.408;2022-08-19T08:17:15;18.33;;;12.98;;
69172;SDS011;56280;49.662;8.408;2022-08-19T08:19:43;14.40;;;11.07;;
69172;SDS011;56280;49.662;8.408;2022-08-19T08:22:09;14.00;;;12.35;;
69172;SDS011;56280;49.662;8.408;2022-08-19T08:25:18;15.77;;;12.23;;
69172;SDS011;56280;49.662;8.408;2022-08-19T08:27:47;16.75;;;11.88;;
69172;SDS011;56280;49.662;8.408;2022-08-19T08:30:16;17.20;;;11.73;;
69172;SDS011;56280;49.662;8.408;2022-08-19T08:32:43;15.63;;;11.07;;
69172;SDS011;56280;49.662;8.408;2022-08-19T08:35:11;15.10;;;11.47;;
69172;SDS011;56280;49.662;8.408;2022-08-19T08:37:38;14.90;;;11.35;;
69172;SDS011;56280;49.662;8.408;2022-08-19T08:40:05;15.93;;;10.90;;
69172;SDS011;56280;49.662;8.408;2022-08-19T08:42:44;12.75;;;10.80;;
69172;SDS011;56280;49.662;8.408;2022-08-19T08:45:14;14.50;;;10.85;;
69172;SDS011;56280;49.662;8.408;2022-08-19T08:47:43;14.30;;;10.88;;
69172;SDS011;56280;49.662;8.408;2022-08-19T08:50:13;17.17;;;12.82;;
69172;SDS011;56280;49.662;8.408;2022-08-19T08:52:47;14.07;;;11.93;;
69172;SDS011;56280;49.662;8.408;2022-08-19T08:55:17;13.27;;;10.93;;
69172;SDS011;56280;49.662;8.408;2022-08-19T09:02:51;12.20;;;9.68;;
69172;SDS011;56280;49.662;8.408;2022-08-19T09:05:18;12.77;;;10.27;;
69172;SDS011;56280;49.662;8.408;2022-08-19T09:16:16;10.52;;;8.70;;
69172;SDS011;56280;49.662;8.408;2022-08-19T09:18:48;12.68;;;9.57;;
69172;SDS011;56280;49.662;8.408;2022-08-19T09:21:17;13.52;;;10.00;;
69172;SDS011;56280;49.662;8.408;2022-08-19T09:23:43;13.77;;;9.77;;
69172;SDS011;56280;49.662;8.408;2022-08-19T09:26:13;10.43;;;9.30;;
69172;SDS011;56280;49.662;8.408;2022-08-19T09:28:41;15.05;;;9.05;;
69172;SDS011;56280;49.662;8.408;2022-08-19T09:31:09;12.25;;;10.18;;
69172;SDS011;56280;49.662;8.408;2022-08-19T09:33:38;14.30;;;10.85;;
69172;SDS011;56280;49.662;8.408;2022-08-19T09:36:07;11.00;;;9.20;;
69172;SDS011;56280;49.662;8.408;2022-08-19T09:38:34;13.48;;;9.60;;
69172;SDS011;56280;49.662;8.408;2022-08-19T09:41:04;12.60;;;8.73;;
69172;SDS011;56280;49.662;8.408;2022-08-19T09:43:31;11.65;;;9.30;;
69172;SDS011;56280;49.662;8.408;2022-08-19T09:45:58;10.43;;;9.18;;
69172;SDS011;56280;49.662;8.408;2022-08-19T09:48:25;14.18;;;10.68;;
69172;SDS011;56280;49.662;8.408;2022-08-19T09:50:50;13.80;;;10.50;;
69172;SDS011;56280;49.662;8.408;2022-08-19T09:53:16;11.90;;;10.50;;
69172;SDS011;56280;49.662;8.408;2022-08-19T09:55:42;13.53;;;11.77;;
69172;SDS011;56280;49.662;8.408;2022-08-19T09:58:08;13.73;;;12.18;;
69172;SDS011;56280;49.662;8.408;2022-08-19T10:00:33;15.87;;;12.53;;
69172;SDS011;56280;49.662;8.408;2022-08-19T10:02:59;15.40;;;13.80;;
69172;SDS011;56280;49.662;8.408;2022-08-19T10:05:24;16.37;;;13.80;;
69172;SDS011;56280;49.662;8.408;2022-08-19T10:08:08;16.05;;;13.00;;
69172;SDS011;56280;49.662;8.408;2022-08-19T10:10:35;16.27;;;14.45;;
69172;SDS011;56280;49.662;8.408;2022-08-19T10:13:01;16.25;;;13.32;;
69172;SDS011;56280;49.662;8.408;2022-08-19T10:15:26;14.47;;;12.97;;
69172;SDS011;56280;49.662;8.408;2022-08-19T10:17:51;13.90;;;12.20;;
69172;SDS011;56280;49.662;8.408;2022-08-19T10:20:17;13.40;;;12.00;;
69172;SDS011;56280;49.662;8.408;2022-08-19T10:22:42;12.17;;;10.23;;
69172;SDS011;56280;49.662;8.408;2022-08-19T10:25:08;13.93;;;11.35;;
69172;SDS011;56280;49.662;8.408;2022-08-19T10:27:34;12.70;;;10.50;;
69172;SDS011;56280;49.662;8.408;2022-08-19T10:29:59;12.83;;;10.90;;
69172;SDS011;56280;49.662;8.408;2022-08-19T10:32:24;12.07;;;10.73;;
69172;SDS011;56280;49.662;8.408;2022-08-19T10:34:50;12.90;;;11.20;;
69172;SDS011;56280;49.662;8.408;2022-08-19T10:37:16;12.82;;;11.43;;
69172;SDS011;56280;49.662;8.408;2022-08-19T10:39:44;13.65;;;12.25;;
69172;SDS011;56280;49.662;8.408;2022-08-19T10:42:12;12.73;;;11.37;;
69172;SDS011;56280;49.662;8.408;2022-08-19T10:44:38;14.45;;;12.45;;
69172;SDS011;56280;49.662;8.408;2022-08-19T10:47:04;12.65;;;11.35;;
69172;SDS011;56280;49.662;8.408;2022-08-19T10:49:30;15.50;;;11.10;;
69172;SDS011;56280;49.662;8.408;2022-08-19T10:51:57;14.68;;;11.90;;
69172;SDS011;56280;49.662;8.408;2022-08-19T10:54:41;11.07;;;9.48;;
69172;SDS011;56280;49.662;8.408;2022-08-19T10:57:25;11.18;;;9.73;;
69172;SDS011;56280;49.662;8.408;2022-08-19T10:59:54;9.90;;;8.90;;
69172;SDS011;56280;49.662;8.408;2022-08-19T11:02:20;9.32;;;8.32;;
69172;SDS011;56280;49.662;8.408;2022-08-19T11:04:46;10.38;;;8.20;;
69172;SDS011;56280;49.662;8.408;2022-08-19T11:07:12;15.25;;;9.10;;
69172;SDS011;56280;49.662;8.408;2022-08-19T11:09:39;13.68;;;10.82;;
69172;SDS011;56280;49.662;8.408;2022-08-19T11:12:06;11.47;;;10.27;;
69172;SDS011;56280;49.662;8.408;2022-08-19T11:14:33;10.50;;;9.38;;
69172;SDS011;56280;49.662;8.408;2022-08-19T11:16:58;12.30;;;10.00;;
69172;SDS011;56280;49.662;8.408;2022-08-19T11:19:24;12.80;;;11.10;;
69172;SDS011;56280;49.662;8.408;2022-08-19T11:21:49;11.23;;;9.77;;
69172;SDS011;56280;49.662;8.408;2022-08-19T11:24:20;10.77;;;9.65;;
69172;SDS011;56280;49.662;8.408;2022-08-19T11:26:48;12.65;;;9.57;;
69172;SDS011;56280;49.662;8.408;2022-08-19T11:29:15;11.73;;;10.60;;
69172;SDS011;56280;49.662;8.408;2022-08-19T11:31:43;19.30;;;12.63;;
69172;SDS011;56280;49.662;8.408;2022-08-19T11:34:12;11.07;;;9.98;;
69172;SDS011;56280;49.662;8.408;2022-08-19T11:36:41;11.23;;;10.00;;
69172;SDS011;56280;49.662;8.408;2022-08-19T11:39:09;11.13;;;8.98;;
69172;SDS011;56280;49.662;8.408;2022-08-19T11:41:38;9.65;;;8.63;;
69172;SDS011;56280;49.662;8.408;2022-08-19T11:44:03;9.70;;;8.70;;
69172;SDS011;56280;49.662;8.408;2022-08-19T11:46:29;9.10;;;7.87;;
69172;SDS011;56280;49.662;8.408;2022-08-19T11:48:56;8.73;;;7.68;;
69172;SDS011;56280;49.662;8.408;2022-08-19T11:51:23;9.90;;;8.25;;
69172;SDS011;56280;49.662;8.408;2022-08-19T11:53:52;11.85;;;7.20;;
69172;SDS011;56280;49.662;8.408;2022-08-19T11:56:19;7.15;;;6.00;;
69172;SDS011;56280;49.662;8.408;2022-08-19T11:58:45;8.73;;;6.53;;
69172;SDS011;56280;49.662;8.408;2022-08-19T12:01:12;12.37;;;6.07;;
69172;SDS011;56280;49.662;8.408;2022-08-19T12:03:40;8.73;;;5.95;;
69172;SDS011;56280;49.662;8.408;2022-08-19T12:06:08;8.95;;;5.93;;
69172;SDS011;56280;49.662;8.408;2022-08-19T12:08:36;8.05;;;6.00;;
69172;SDS011;56280;49.662;8.408;2022-08-19T12:11:02;7.03;;;6.33;;
69172;SDS011;56280;49.662;8.408;2022-08-19T12:13:28;7.47;;;5.30;;
69172;SDS011;56280;49.662;8.408;2022-08-19T12:15:55;7.15;;;5.60;;
69172;SDS011;56280;49.662;8.408;2022-08-19T12:18:21;6.70;;;5.78;;
69172;SDS011;56280;49.662;8.408;2022-08-19T12:20:47;7.10;;;5.72;;
69172;SDS011;56280;49.662;8.408;2022-08-19T12:23:15;6.53;;;5.28;;
69172;SDS011;56280;49.662;8.408;2022-08-19T12:25:45;6.82;;;5.85;;
69172;SDS011;56280;49.662;8.408;2022-08-19T12:28:15;6.83;;;5.40;;
69172;SDS011;56280;49.662;8.408;2022-08-19T12:30:41;6.13;;;5.53;;
69172;SDS011;56280;49.662;8.408;2022-08-19T12:33:06;6.40;;;5.60;;
69172;SDS011;56280;49.662;8.408;2022-08-19T12:35:32;7.15;;;5.95;;
69172;SDS011;56280;49.662;8.408;2022-08-19T12:37:58;7.10;;;6.18;;
69172;SDS011;56280;49.662;8.408;2022-08-19T12:40:24;8.93;;;5.85;;
69172;SDS011;56280;49.662;8.408;2022-08-19T12:42:49;7.83;;;5.93;;
69172;SDS011;56280;49.662;8.408;2022-08-19T12:45:16;8.73;;;6.72;;
69172;SDS011;56280;49.662;8.408;2022-08-19T12:47:41;6.63;;;5.73;;
69172;SDS011;56280;49.662;8.408;2022-08-19T12:50:07;8.77;;;6.00;;
69172;SDS011;56280;49.662;8.408;2022-08-19T12:52:34;6.95;;;5.57;;
69172;SDS011;56280;49.662;8.408;2022-08-19T12:55:03;7.20;;;6.07;;
69172;SDS011;56280;49.662;8.408;2022-08-19T12:57:30;8.02;;;5.82;;
69172;SDS011;56280;49.662;8.408;2022-08-19T12:59:58;7.28;;;5.85;;
69172;SDS011;56280;49.662;8.408;2022-08-19T13:02:24;7.38;;;6.30;;
69172;SDS011;56280;49.662;8.408;2022-08-19T13:04:49;9.33;;;6.70;;
69172;SDS011;56280;49.662;8.408;2022-08-19T13:07:14;7.27;;;5.73;;
69172;SDS011;56280;49.662;8.408;2022-08-19T13:09:40;7.73;;;5.90;;
69172;SDS011;56280;49.662;8.408;2022-08-19T13:12:08;9.23;;;5.70;;
69172;SDS011;56280;49.662;8.408;2022-08-19T13:14:37;8.10;;;5.45;;
69172;SDS011;56280;49.662;8.408;2022-08-19T13:17:05;8.30;;;6.15;;
69172;SDS011;56280;49.662;8.408;2022-08-19T13:19:30;10.13;;;6.47;;
69172;SDS011;56280;49.662;8.408;2022-08-19T13:21:56;8.40;;;6.33;;
69172;SDS011;56280;49.662;8.408;2022-08-19T13:24:22;7.97;;;6.05;;
69172;SDS011;56280;49.662;8.408;2022-08-19T13:26:48;7.17;;;5.70;;
69172;SDS011;56280;49.662;8.408;2022-08-19T13:29:13;6.93;;;5.70;;
69172;SDS011;56280;49.662;8.408;2022-08-19T13:31:57;6.78;;;5.43;;
69172;SDS011;56280;49.662;8.408;2022-08-19T13:34:41;7.05;;;5.22;;
69172;SDS011;56280;49.662;8.408;2022-08-19T13:37:06;6.77;;;5.17;;
69172;SDS011;56280;49.662;8.408;2022-08-19T13:39:32;5.03;;;4.43;;
69172;SDS011;56280;49.662;8.408;2022-08-19T13:41:59;6.80;;;4.30;;
69172;SDS011;56280;49.662;8.408;2022-08-19T13:44:25;6.30;;;5.07;;
69172;SDS011;56280;49.662;8.408;2022-08-19T13:46:54;5.88;;;4.63;;
69172;SDS011;56280;49.662;8.408;2022-08-19T13:49:24;5.20;;;4.50;;
69172;SDS011;56280;49.662;8.408;2022-08-19T13:51:49;6.90;;;4.73;;
69172;SDS011;56280;49.662;8.408;2022-08-19T13:54:15;5.93;;;4.23;;
69172;SDS011;56280;49.662;8.408;2022-08-19T13:56:44;6.77;;;4.20;;
69172;SDS011;56280;49.662;8.408;2022-08-19T13:59:10;6.22;;;4.00;;
69172;SDS011;56280;49.662;8.408;2022-08-19T14:01:36;5.30;;;4.13;;
69172;SDS011;56280;49.662;8.408;2022-08-19T14:04:02;8.30;;;5.47;;
69172;SDS011;56280;49.662;8.408;2022-08-19T14:06:28;7.50;;;6.40;;
69172;SDS011;56280;49.662;8.408;2022-08-19T14:08:53;7.90;;;7.10;;
69172;SDS011;56280;49.662;8.408;2022-08-19T14:11:19;8.90;;;5.97;;
69172;SDS011;56280;49.662;8.408;2022-08-19T14:13:44;6.82;;;6.13;;
69172;SDS011;56280;49.662;8.408;2022-08-19T14:16:11;7.97;;;6.13;;
69172;SDS011;56280;49.662;8.408;2022-08-19T14:18:37;7.25;;;6.30;;
69172;SDS011;56280;49.662;8.408;2022-08-19T14:21:04;8.00;;;7.20;;
69172;SDS011;56280;49.662;8.408;2022-08-19T14:23:30;7.22;;;6.43;;
69172;SDS011;56280;49.662;8.408;2022-08-19T14:26:03;10.43;;;6.90;;
69172;SDS011;56280;49.662;8.408;2022-08-19T14:28:30;10.60;;;6.68;;
69172;SDS011;56280;49.662;8.408;2022-08-19T14:30:55;9.13;;;7.00;;
69172;SDS011;56280;49.662;8.408;2022-08-19T14:33:21;7.68;;;6.88;;
69172;SDS011;56280;49.662;8.408;2022-08-19T14:35:46;6.95;;;6.15;;
69172;SDS011;56280;49.662;8.408;2022-08-19T14:38:15;7.13;;;5.90;;
69172;SDS011;56280;49.662;8.408;2022-08-19T14:40:42;7.90;;;5.90;;
69172;SDS011;56280;49.662;8.408;2022-08-19T14:43:07;7.22;;;6.32;;
69172;SDS011;56280;49.662;8.408;2022-08-19T14:45:34;6.70;;;5.10;;
69172;SDS011;56280;49.662;8.408;2022-08-19T14:48:01;5.78;;;4.63;;